Atlas, PA

2:30 PM EDT on October 23, 2014 (GMT -0400)
RAWS ROARING CREEK PA US | Change Station
CLOSE
Current Station
Personal Weather Station
Location: Mount Carmel, PA
Elevation: 1035 ft
Nearby Weather Stations

Elev 1035 ft 40.83 °N, 76.42 °W | Updated 34 minutes ago

Overcast
Overcast
51 °F
Feels Like 51 °F
N
6
Wind Variable Wind from South
Gusts 18.0 mph

Today
High -- | Low -- °F
--% Chance of Precip.
Yesterday
High -- | Low -- °F
Precip. -- in
7:25 AM 6:13 PM
Waning Crescent, 0% visible
Pressure 29.87 in
Visibility 10.0 miles
Clouds Overcast 3600 ft
Dew Point 48 °F
Humidity 90%
Rainfall 0.00 in
Snow Depth Not available.
UV 1 out of 12
Pollen .30 out of 12
Air Quality Not available.
Flu Activity Sporadic
METAR KSEG 231753Z AUTO 35013G24KT 10SM OVC036 16/07 A2987 RMK AO2 PK WND 35026/1704 SLP113 T01560067 10156 20111 56015

More Conditions Fewer Conditions

Pressure 29.87 in
Visibility 10.0 miles
Clouds Overcast 3600 ft
Dew Point 48 °F
Humidity 90%
Rainfall 0.00 in
Snow Depth Not available.
UV 1 out of 12
Pollen .30 out of 12
Air Quality Not available.
Flu Activity Sporadic
METAR KSEG 231753Z AUTO 35013G24KT 10SM OVC036 16/07 A2987 RMK AO2 PK WND 35026/1704 SLP113 T01560067 10156 20111 56015

More Conditions Fewer Conditions

10-Day Weather Forecast

Almanac

Astronomy

Oct. 23, 2014 Rise Set
Actual Time 7:25 AM EDT 6:13 PM EDT
Civil Twilight 6:57 AM EDT 6:41 PM EDT
Nautical Twilight 6:25 AM EDT 7:13 PM EDT
Astronomical Twilight 5:54 AM EDT 7:45 PM EDT
Moon 7:03 AM EDT 6:13 PM EDT
Length of Visible Light 11h 43m
Length of Day
10h 47m
Tomorrow will be 2m 30s shorter.
Waning Crescent, 0% of the Moon is Illuminated
Today
Waning Crescent
Oct 23
New
Oct 30
First Quarter
Nov 6
Full
Nov 14
Last Quarter

Today's Extremes

State Highs State Lows

Community

WunderPhotos

Upload Photos

1,764,338 photos uploaded!

WunderBlogs® & News

Nearby

Snow Depth

Station Depth Elevation
No new snow has been reported.

Earthquake Activity

City Distance Mag. Time & Date
No recent earthquake activity has been reported nearby.
Minimum magnitude displayed is 2.5.

Coastal Water Temperatures

Place Temperature
No Stations Reporting

Nearby Weather Stations